ニューヨーク/JFK の空港の天気 - METARとTAF

ジョン・F・ケネディ国際空港 ( KJFK / JFK ) - アメリカ ニューヨーク州ニューヨーク
飛行場実況気象(Metar)
観測時間08/18 09:51 EDT (08/18 13:51 UTC)
風向・風速北西 4m/s
視程10km以上
天気現象
少しの雲 雲底高度 7620m
気温25.6℃
湿度48%
気圧1013.1hPa
METARKJFK 181351Z 31008KT 10SM FEW250 26/14 A2992 RMK AO2 SLP131 T02560139
過去の天気等 Google飛行場航空写真 Wunderground天気予報

過去48時間のMETAR

飛行場予報(TAF)
発表時間: 8/18 10:33 EDT (8/18 14:33 UTC)
予報対象時間: 18日11時 EDT ~ 19日14時 EDT
風向・風速西北西 4m/s
視程10km以上
少しの雲 雲底高度 3050m
少しの雲 雲底高度 7620m
18日12時 EDT から
風向・風速西南西 5m/s
視程10km以上
少しの雲 雲底高度 2130m
全天の4割程度の雲 雲底高度 7620m
18日14時 EDT から
風向・風速南 7m/s
視程10km以上
全天の4割程度の雲 雲底高度 2130m
全天の4割程度の雲 雲底高度 7620m
18日20時 EDT から
風向・風速西 4m/s
視程10km以上
少しの雲 雲底高度 1830m
19日1時 EDT から
風向・風速不定 2m/s
視程10km以上
なし
19日9時 EDT から
風向・風速西 4m/s
視程10km以上
なし
19日12時 EDT から
風向・風速南西 5m/s
視程10km以上
なし
KJFK 181433Z 1815/1918 30008KT P6SM FEW100 FEW250
FM181600 24010KT P6SM FEW070 SCT250
FM181800 19014KT P6SM SCT070 SCT250
FM190000 26008KT P6SM FEW060
FM190500 VRB04KT P6SM SKC
FM191300 26007KT P6SM SKC
FM191600 23010KT P6SM SKC